Latest Weather Observations for Charlton

IDV60801

Issued at 6:02 am EST Wednesday 4 May 2016 (issued every 30 minutes, with the page automatically refreshed every 10 minutes)

About weather observations | Map of weather stations | Latest weather observations for VIC | Other Formats
Station Details ID: 080128 Name: CHARLTON Lat: -36.28 Lon: 143.33 Height: 131.7 m
Data from the previous 72 hours. | See also: Recent months at Charlton
Date/Time
EST
Temp
°C
App
Temp
°C
Dew
Point
Rel
Hum
%
Delta-T
°C
Wind Press
QNH
hPa
Press
MSL
hPa
Rain
since 9 am
mm
Dir
 
Spd
km/h
Gust
km/h
Spd
kts
Gust
kts
04/06:00am 7.8 5.9 7.7 99 0.0 WNW 7 11 4 6 1014.5 1014.5 0.2
04/05:30am 7.9 5.7 7.8 99 0.0 WNW 9 11 5 6 1014.1 1014.1 0.2
04/05:00am 8.1 5.9 8.0 99 0.0 WNW 9 13 5 7 1013.8 1013.8 0.2
04/04:30am 8.3 6.2 8.2 99 0.0 WNW 9 13 5 7 1013.5 1013.5 0.2
04/04:00am 8.3 6.2 8.2 99 0.0 WNW 9 13 5 7 1013.2 1013.2 0.2
04/03:30am 8.4 6.3 8.3 99 0.0 NW 9 13 5 7 1012.8 1012.8 0.2
04/03:00am 8.7 6.7 8.6 99 0.0 NW 9 11 5 6 1012.5 1012.5 0.2
04/02:30am 8.8 6.8 8.7 99 0.0 WNW 9 11 5 6 1012.3 1012.3 0.2
04/02:00am 9.2 7.3 9.1 99 0.0 NW 9 13 5 7 1012.1 1012.1 0.2
04/01:30am 9.5 7.6 9.2 98 0.1 WNW 9 15 5 8 1012.1 1012.1 0.2
04/01:00am 10.0 7.4 9.5 97 0.3 WNW 13 17 7 9 1012.1 1012.1 0.2
04/12:30am 10.2 7.7 9.6 96 0.3 WNW 13 20 7 11 1011.9 1011.9 0.2
04/12:00am 10.4 7.8 9.5 94 0.5 WNW 13 20 7 11 1011.7 1011.7 0.2
 
Date/Time
EST
Temp
°C
App
Temp
°C
Dew
Point
Rel
Hum
%
Delta-T
°C
Wind Press
QNH
hPa
Press
MSL
hPa
Rain
since 9 am
mm
Dir
 
Spd
km/h
Gust
km/h
Spd
kts
Gust
kts
03/11:30pm 10.6 7.9 9.0 90 0.8 WNW 13 22 7 12 1011.4 1011.4 0.2
03/11:00pm 11.0 8.3 9.1 88 1.0 WNW 13 20 7 11 1011.2 1011.2 0.2
03/10:30pm 11.6 9.0 9.3 86 1.2 WNW 13 20 7 11 1010.9 1010.9 0.2
03/10:00pm 11.8 8.9 9.7 87 1.1 WNW 15 24 8 13 1010.5 1010.5 0.2
03/09:30pm 11.7 9.2 9.6 87 1.1 WNW 13 20 7 11 1010.2 1010.3 0.2
03/09:00pm 11.9 9.3 9.5 85 1.2 WNW 13 20 7 11 1009.7 1009.8 0.2
03/08:30pm 12.1 9.2 9.7 85 1.2 W 15 26 8 14 1009.5 1009.6 0.0
03/08:00pm 12.0 8.8 10.1 88 1.0 W 17 28 9 15 1009.1 1009.1 0.0
03/07:30pm 11.9 8.7 9.8 87 1.1 WSW 17 32 9 17 1008.8 1008.8 0.0
03/07:00pm 13.1 9.4 10.1 82 1.6 WSW 20 32 11 17 1008.4 1008.4 0.0
03/06:30pm 15.3 11.9 9.0 66 3.2 W 17 28 9 15 1007.4 1007.4 0.0
03/06:00pm 15.6 11.6 8.4 62 3.7 W 19 30 10 16 1006.6 1006.6 0.0
03/05:30pm 15.7 11.8 9.4 66 3.3 W 20 37 11 20 1005.8 1005.8 0.0
03/05:00pm 16.7 11.5 8.9 60 4.1 WSW 26 43 14 23 1005.4 1005.4 0.0
03/04:42pm 17.6 11.8 7.9 53 5.0 W 28 46 15 25 1005.0 1005.0 0.0
03/04:30pm 18.4 12.6 7.8 50 5.4 W 28 44 15 24 1004.7 1004.7 0.0
03/04:15pm 19.0 13.4 8.6 51 5.4 W 28 46 15 25 1004.5 1004.5 0.0
03/04:00pm 18.0 14.8 11.8 67 3.4 WNW 20 32 11 17 1004.3 1004.3 0.0
03/03:30pm 17.7 14.7 12.4 71 3.0 WNW 20 32 11 17 1004.2 1004.2 0.0
03/03:00pm 16.7 13.4 12.7 77 2.2 WNW 22 35 12 19 1004.0 1004.0 0.0
03/02:30pm 15.5 11.4 12.8 84 1.5 WNW 26 43 14 23 1004.1 1004.1 0.0
03/02:00pm 15.2 10.6 13.4 89 1.0 W 30 52 16 28 1004.3 1004.3 0.0
03/01:30pm 18.6 13.4 10.4 59 4.4 NW 28 48 15 26 1003.6 1003.6 0.0
03/01:00pm 19.0 13.6 9.5 54 5.1 NW 28 48 15 26 1003.7 1003.7 0.0
03/12:30pm 18.9 12.6 9.1 53 5.2 NW 32 52 17 28 1004.0 1004.0 0.0
03/12:00pm 19.1 12.7 9.3 53 5.2 NW 33 57 18 31 1004.2 1004.2 0.0
03/11:30am 18.8 12.8 8.5 51 5.4 NW 30 59 16 32 1004.5 1004.5 0.0
03/11:06am 18.4 12.6 7.8 50 5.4 NW 28 46 15 25 1004.8 1004.8 0.0
03/11:00am 18.7 13.6 7.8 49 5.6 NW 24 41 13 22 1004.8 1004.8 0.0
03/10:30am 17.4 10.7 7.2 51 5.1 NW 32 50 17 27 1005.1 1005.1 0.0
03/10:12am 16.8 10.8 6.9 52 4.9 NNW 28 50 15 27 1005.3 1005.3 0.0
03/10:00am 16.5 10.8 6.9 53 4.8 NW 26 44 14 24 1005.6 1005.6 0.0
03/09:52am 16.0 9.9 6.7 54 4.6 NW 28 46 15 25 1005.5 1005.5 0.0
03/09:30am 15.3 9.7 7.1 58 4.1 NNW 26 41 14 22 1005.7 1005.7 0.0
03/09:00am 14.3 8.3 6.9 61 3.6 NNW 28 44 15 24 1005.3 1005.3 0.0
03/08:30am 13.5 7.9 7.1 65 3.1 NNW 26 41 14 22 1006.0 1006.0 0.0
03/08:00am 13.2 8.3 7.0 66 3.0 NNW 22 35 12 19 1006.3 1006.3 0.0
03/07:30am 12.2 7.6 6.7 69 2.6 NNW 20 35 11 19 1006.2 1006.2 0.0
03/07:00am 12.1 7.6 6.8 70 2.6 NNW 20 35 11 19 1006.1 1006.1 0.0
03/06:30am 11.9 7.5 6.4 69 2.6 NNW 19 30 10 16 1006.3 1006.3 0.0
03/06:00am 11.6 7.1 6.1 69 2.6 NNW 19 30 10 16 1006.5 1006.5 0.0
03/05:30am 11.9 7.2 6.0 67 2.8 NNW 20 32 11 17 1006.6 1006.6 0.0
03/05:00am 12.1 7.0 6.2 67 2.8 NNW 22 35 12 19 1006.8 1006.8 0.0
03/04:30am 12.0 7.5 6.1 67 2.8 NNW 19 32 10 17 1007.1 1007.1 0.0
03/04:00am 12.3 8.2 6.1 66 2.9 NNW 17 26 9 14 1007.4 1007.4 0.0
03/03:30am 12.8 8.4 6.4 65 3.1 NNW 19 28 10 15 1007.3 1007.3 0.0
03/03:00am 13.2 9.2 6.5 64 3.2 NNW 17 26 9 14 1007.7 1007.7 0.0
03/02:30am 13.6 9.6 6.7 63 3.3 NNW 17 28 9 15 1008.0 1008.0 0.0
03/02:00am 13.8 9.9 6.9 63 3.4 NNW 17 24 9 13 1008.3 1008.3 0.0
03/01:30am 13.6 10.0 6.7 63 3.3 NNW 15 22 8 12 1008.8 1008.8 0.0
03/01:00am 13.5 10.2 6.4 62 3.4 NNW 13 20 7 11 1009.2 1009.2 0.0
03/12:30am 13.5 9.0 5.9 60 3.6 NNW 19 26 10 14 1009.5 1009.6 0.0
03/12:00am 13.1 8.9 5.8 61 3.5 NNW 17 26 9 14 1009.8 1009.9 0.0
 
Date/Time
EST
Temp
°C
App
Temp
°C
Dew
Point
Rel
Hum
%
Delta-T
°C
Wind Press
QNH
hPa
Press
MSL
hPa
Rain
since 9 am
mm
Dir
 
Spd
km/h
Gust
km/h
Spd
kts
Gust
kts
02/11:30pm 13.1 9.3 5.8 61 3.5 NNW 15 24 8 13 1010.0 1010.1 0.0
02/11:00pm 13.6 9.0 5.7 59 3.8 NNW 19 28 10 15 1010.1 1010.2 0.0
02/10:30pm 14.2 9.6 5.6 56 4.1 N 19 30 10 16 1010.1 1010.2 0.0
02/10:00pm 14.1 9.9 5.7 57 4.0 N 17 24 9 13 1010.3 1010.4 0.0
02/09:30pm 14.4 10.2 5.5 55 4.2 N 17 28 9 15 1010.6 1010.6 0.0
02/09:00pm 15.0 11.2 5.8 54 4.4 N 15 20 8 11 1010.7 1010.7 0.0
02/08:30pm 14.8 11.3 5.3 53 4.5 N 13 20 7 11 1010.9 1010.9 0.0
02/08:00pm 14.9 11.4 5.4 53 4.5 N 13 20 7 11 1010.9 1010.9 0.0
02/07:30pm 14.9 11.5 5.7 54 4.4 NNW 13 19 7 10 1011.2 1011.2 0.0
02/07:00pm 15.0 12.0 5.8 54 4.4 NNW 11 17 6 9 1010.9 1010.9 0.0
02/06:30pm 15.6 12.2 5.8 52 4.7 NNW 13 20 7 11 1011.0 1011.0 0.0
02/06:00pm 15.9 11.9 4.9 48 5.2 NNW 15 20 8 11 1010.8 1010.8 0.0
02/05:30pm 16.7 12.7 5.0 46 5.6 NNW 15 22 8 12 1010.6 1010.6 0.0
02/05:00pm 17.1 12.8 5.1 45 5.8 NW 17 28 9 15 1010.9 1010.9 0.0
02/04:30pm 17.4 13.0 4.7 43 6.1 NW 17 32 9 17 1011.1 1011.1 0.0
02/04:00pm 17.5 12.0 4.1 41 6.4 NW 22 35 12 19 1011.1 1011.1 0.0
02/03:30pm 18.1 12.7 4.3 40 6.6 NW 22 35 12 19 1011.1 1011.1 0.0
02/03:00pm 17.4 11.5 4.0 41 6.3 NW 24 37 13 20 1011.6 1011.6 0.0
02/02:30pm 17.8 12.3 4.0 40 6.5 NW 22 35 12 19 1011.8 1011.8 0.0
02/02:00pm 17.4 11.5 4.0 41 6.3 NW 24 43 13 23 1011.9 1011.9 0.0
02/01:30pm 16.9 12.0 4.9 45 5.7 NW 20 43 11 23 1012.2 1012.2 0.0
02/01:00pm 16.7 11.6 6.2 50 5.2 NNW 22 39 12 21 1012.7 1012.7 0.0
02/12:30pm 16.9 11.7 5.5 47 5.5 NNW 22 37 12 20 1013.0 1013.0 0.0
02/12:00pm 16.1 10.9 5.4 49 5.1 NNW 22 32 12 17 1013.4 1013.4 0.0
02/11:30am 15.2 10.7 7.0 58 4.1 NNW 20 30 11 16 1013.7 1013.7 0.0
02/11:00am 14.4 10.1 7.2 62 3.5 NNW 19 30 10 16 1014.2 1014.2 0.0
02/10:30am 14.4 10.5 8.6 68 2.9 NNW 19 28 10 15 1014.5 1014.5 0.0
02/10:00am 12.8 9.5 8.1 73 2.3 NNW 15 24 8 13 1014.8 1014.8 0.0
02/09:30am 12.0 9.1 8.1 77 1.9 NNW 13 20 7 11 1015.0 1015.0 0.0
02/09:00am 11.8 9.3 8.1 78 1.8 NNW 11 19 6 10 1015.1 1015.1 0.0
02/08:30am 10.4 7.7 7.3 81 1.5 NNW 11 15 6 8 1015.2 1015.2 0.0
02/08:00am 10.1 7.7 7.2 82 1.4 NNW 9 15 5 8 1015.0 1015.0 0.0
02/07:30am 9.7 7.7 7.1 84 1.2 NNW 7 11 4 6 1014.8 1014.8 0.0
02/07:00am 9.9 7.5 6.8 81 1.5 NNW 9 15 5 8 1014.8 1014.8 0.0
02/06:30am 10.0 7.5 6.5 79 1.6 NNW 9 13 5 7 1015.0 1015.0 0.0
02/06:00am 9.8 7.9 6.7 81 1.5 N 6 11 3 6 1014.9 1014.9 0.0
02/05:30am 8.9 7.0 6.5 85 1.1 NE 6 7 3 4 1015.0 1015.0 0.0
02/05:00am 9.0 6.5 6.4 84 1.2 NNE 9 11 5 6 1015.2 1015.2 0.0
02/04:30am 8.1 6.5 7.8 98 0.1 NNE 6 7 3 4 1015.1 1015.1 0.0
02/04:00am 7.2 6.5 7.1 99 0.0 CALM 0 0 0 0 1015.0 1015.0 0.0
02/03:30am 6.6 5.0 6.5 99 0.0 SSE 4 6 2 3 1015.3 1015.3 0.0
02/03:00am 6.2 5.3 6.1 99 0.0 CALM 0 0 0 0 1015.6 1015.6 0.0
02/02:30am 6.1 4.8 6.0 99 0.0 S 2 6 1 3 1015.9 1016.0 0.0
02/02:00am 5.7 4.6 5.1 96 0.3 CALM 0 0 0 0 1015.9 1016.0 0.0
02/01:30am 6.1 5.1 5.4 95 0.3 CALM 0 0 0 0 1016.2 1016.3 0.0
02/01:00am 6.3 5.3 5.4 94 0.4 CALM 0 0 0 0 1016.4 1016.5 0.0
02/12:30am 6.6 5.6 5.4 92 0.5 CALM 0 0 0 0 1016.8 1016.9 0.0
02/12:00am 7.0 5.9 5.0 87 0.9 CALM 0 0 0 0 1017.1 1017.2 0.0
 
Date/Time
EST
Temp
°C
App
Temp
°C
Dew
Point
Rel
Hum
%
Delta-T
°C
Wind Press
QNH
hPa
Press
MSL
hPa
Rain
since 9 am
mm
Dir
 
Spd
km/h
Gust
km/h
Spd
kts
Gust
kts
01/11:30pm 7.6 5.4 5.4 86 1.0 NW 6 7 3 4 1017.4 1017.5 0.0
01/11:00pm 8.2 6.0 5.5 83 1.2 NW 6 7 3 4 1017.6 1017.7 0.0
01/10:30pm 8.8 6.6 5.4 79 1.5 WSW 6 9 3 5 1017.7 1017.8 0.0
01/10:00pm 9.2 7.1 5.6 78 1.6 WNW 6 7 3 4 1017.8 1017.9 0.0
01/09:30pm 9.4 7.1 5.9 79 1.6 NW 7 9 4 5 1017.5 1017.6 0.0
01/09:00pm 9.8 7.6 6.2 78 1.7 NW 7 9 4 5 1017.3 1017.4 0.0
01/08:30pm 9.7 7.5 6.2 79 1.6 NW 7 9 4 5 1017.0 1017.1 0.0
01/08:00pm 9.7 7.7 6.4 80 1.5 NW 6 7 3 4 1016.5 1016.6 0.0
01/07:30pm 10.8 8.8 6.4 74 2.1 W 6 7 3 4 1016.4 1016.5 0.0
01/07:00pm 11.9 9.3 6.2 68 2.7 WSW 9 13 5 7 1016.2 1016.3 0.0
01/06:30pm 12.3 9.7 5.9 65 3.0 WNW 9 15 5 8 1015.9 1016.0 0.0
01/06:00pm 13.0 9.9 5.4 60 3.6 W 11 17 6 9 1015.5 1015.5 0.0
01/05:30pm 13.7 10.3 6.1 60 3.6 W 13 20 7 11 1015.3 1015.3 0.0
01/05:00pm 14.5 9.5 4.5 51 4.7 W 20 32 11 17 1015.0 1015.0 0.0
01/04:30pm 15.5 10.7 4.6 48 5.1 W 19 33 10 18 1014.8 1014.8 0.0
01/04:00pm 14.9 10.5 6.5 57 4.1 WSW 19 32 10 17 1014.5 1014.5 0.0
01/03:30pm 15.4 10.9 5.9 53 4.6 WSW 19 28 10 15 1014.0 1014.0 0.0
01/03:00pm 15.6 10.5 5.8 52 4.7 WSW 22 37 12 20 1013.7 1013.7 0.0
01/02:30pm 15.5 10.0 6.0 53 4.6 W 24 35 13 19 1013.3 1013.3 0.0
01/02:00pm 15.0 9.5 5.8 54 4.4 WSW 24 43 13 23 1013.2 1013.2 0.0
01/01:30pm 15.6 10.6 7.9 60 3.9 W 24 44 13 24 1013.0 1013.0 0.0
01/01:00pm 15.0 9.8 8.7 66 3.2 W 26 41 14 22 1013.1 1013.1 0.0
01/12:30pm 13.1 7.5 8.6 74 2.3 WSW 28 52 15 28 1013.4 1013.4 0.0
01/12:22pm 14.7 8.8 7.3 61 3.7 W 28 46 15 25 1013.2 1013.2 0.0
01/12:00pm 14.4 9.3 7.7 64 3.3 W 24 39 13 21 1013.2 1013.2 0.0
01/11:30am 14.6 9.2 7.9 64 3.4 W 26 43 14 23 1013.2 1013.2 0.0
01/11:00am 14.0 8.5 7.5 65 3.2 W 26 44 14 24 1013.1 1013.1 0.0
01/10:30am 14.2 8.6 8.8 70 2.7 W 28 46 15 25 1012.8 1012.8 0.0
01/10:03am 13.8 8.1 8.4 70 2.7 W 28 46 15 25 1012.4 1012.4 0.0
01/10:00am 13.6 8.3 8.4 71 2.6 WNW 26 46 14 25 1012.4 1012.4 0.0
01/09:33am 13.1 6.9 8.0 71 2.5 WNW 30 50 16 27 1011.9 1011.7 0.0
01/09:30am 13.1 7.8 8.6 74 2.3 WNW 26 44 14 24 1011.9 1011.7 0.0
01/09:17am 13.2 7.5 8.5 73 2.4 WNW 28 46 15 25 1011.8 1011.6 0.0
01/09:00am 13.3 8.9 9.0 75 2.2 WNW 22 43 12 23 1011.4 1011.2 16.8
01/08:30am 13.0 8.1 8.5 74 2.3 WNW 24 41 13 22 1011.0 1010.8 16.8
01/08:00am 12.6 8.6 9.2 80 1.7 NW 20 33 11 18 1010.7 1010.5 16.8
01/07:30am 12.3 7.6 9.1 81 1.6 WNW 24 35 13 19 1010.0 1009.9 16.8
01/07:00am 12.4 8.5 9.6 83 1.4 WNW 20 30 11 16 1009.4 1009.2 16.8
01/06:30am 12.8 8.1 9.4 80 1.7 WNW 24 35 13 19 1009.2 1009.0 16.8

Other Formats:

Comma delimited format used in spreadsheet applications
http://www.bom.gov.au/fwo/IDV60801/IDV60801.94839.axf

JavaScript Object Notation format (JSON) in row-major order
http://www.bom.gov.au/fwo/IDV60801/IDV60801.94839.json